createdAt,value
2023-10-06T00:02:08.855Z,6.20
2023-10-06T00:04:40.064Z,6.67
2023-10-06T00:07:09.218Z,6.77
2023-10-06T00:09:36.291Z,6.33
2023-10-06T00:12:06.337Z,6.67
2023-10-06T00:14:44.212Z,5.97
2023-10-06T00:17:16.897Z,6.27
2023-10-06T00:19:47.935Z,6.73
2023-10-06T00:22:17.918Z,5.87
2023-10-06T00:25:00.022Z,6.13
2023-10-06T00:27:30.836Z,5.73
2023-10-06T00:29:57.907Z,5.63
2023-10-06T00:32:27.998Z,5.40
2023-10-06T00:35:16.300Z,5.27
2023-10-06T00:37:43.217Z,5.60
2023-10-06T00:40:12.462Z,5.73
2023-10-06T00:42:39.987Z,6.07
2023-10-06T00:45:10.588Z,6.03
2023-10-06T00:47:39.971Z,6.13
2023-10-06T00:50:08.494Z,5.27
2023-10-06T00:52:35.324Z,5.70
2023-10-06T00:55:06.900Z,6.00
2023-10-06T00:57:33.769Z,5.77
2023-10-06T01:00:00.540Z,5.77
2023-10-06T01:02:27.535Z,6.10
2023-10-06T01:04:54.477Z,5.90
2023-10-06T01:07:25.683Z,5.63
2023-10-06T01:09:57.157Z,5.83
2023-10-06T01:12:25.609Z,5.67
2023-10-06T01:15:06.221Z,5.93
2023-10-06T01:17:33.383Z,6.50
2023-10-06T01:20:00.962Z,6.03
2023-10-06T01:22:31.257Z,6.10
2023-10-06T01:25:05.674Z,5.70
2023-10-06T01:27:32.365Z,5.93
2023-10-06T01:30:17.464Z,5.93
2023-10-06T01:32:45.702Z,5.47
2023-10-06T01:35:35.653Z,5.40
2023-10-06T01:38:02.758Z,5.53
2023-10-06T01:40:29.616Z,6.60
2023-10-06T01:42:56.851Z,13.70
2023-10-06T01:45:23.639Z,8.53
2023-10-06T01:47:56.727Z,9.17
2023-10-06T01:50:28.285Z,6.73
2023-10-06T01:52:57.081Z,5.43
2023-10-06T01:55:25.476Z,6.17
2023-10-06T01:57:52.631Z,4.80
2023-10-06T02:00:27.321Z,5.47
2023-10-06T02:02:54.621Z,5.27
2023-10-06T02:05:22.393Z,5.53
2023-10-06T02:07:49.202Z,5.57
2023-10-06T02:10:16.795Z,5.77
2023-10-06T02:12:43.519Z,5.57
2023-10-06T02:15:13.314Z,5.67
2023-10-06T02:17:43.473Z,5.50
2023-10-06T02:20:15.559Z,5.67
2023-10-06T02:22:42.307Z,5.80
2023-10-06T02:25:11.929Z,5.60
2023-10-06T02:27:45.959Z,5.53
2023-10-06T02:30:14.786Z,5.80
2023-10-06T02:32:41.678Z,6.57
2023-10-06T02:35:09.319Z,5.60
2023-10-06T02:37:36.124Z,6.03
2023-10-06T02:40:12.083Z,6.70
2023-10-06T02:42:44.637Z,6.10
2023-10-06T02:45:17.830Z,6.70
2023-10-06T02:47:44.871Z,6.43
2023-10-06T02:50:20.026Z,6.13
2023-10-06T02:52:47.640Z,5.97
2023-10-06T02:55:19.801Z,6.27
2023-10-06T02:57:52.582Z,5.47
2023-10-06T03:00:22.326Z,6.10
2023-10-06T03:02:49.208Z,5.80
2023-10-06T03:05:33.240Z,5.80
2023-10-06T03:08:10.622Z,6.27
2023-10-06T03:10:49.297Z,5.70
2023-10-06T03:13:17.617Z,5.90
2023-10-06T03:15:48.706Z,5.73
2023-10-06T03:18:17.830Z,6.23
2023-10-06T03:20:48.439Z,6.27
2023-10-06T03:23:38.383Z,7.00
2023-10-06T03:26:10.770Z,6.63
2023-10-06T03:28:38.040Z,6.77
2023-10-06T03:31:21.182Z,6.50
2023-10-06T03:33:49.249Z,5.77
2023-10-06T03:36:26.345Z,6.33
2023-10-06T03:38:57.014Z,5.60
2023-10-06T03:41:32.311Z,6.33
2023-10-06T03:44:05.007Z,5.87
2023-10-06T03:46:38.696Z,6.80
2023-10-06T03:49:08.503Z,6.57
2023-10-06T03:51:41.828Z,5.60
2023-10-06T03:54:10.349Z,6.10
2023-10-06T03:56:37.303Z,6.03
2023-10-06T03:59:24.414Z,5.23
2023-10-06T04:01:52.649Z,5.93
2023-10-06T04:04:23.299Z,5.53
2023-10-06T04:06:50.273Z,5.63
2023-10-06T04:09:29.135Z,5.80
2023-10-06T04:11:58.280Z,5.70
2023-10-06T04:14:28.700Z,6.57
2023-10-06T04:16:55.621Z,6.00
2023-10-06T04:19:22.726Z,5.70
2023-10-06T04:21:49.554Z,5.40
2023-10-06T04:24:16.235Z,5.97
2023-10-06T04:26:42.942Z,5.60
2023-10-06T04:29:10.193Z,6.00
2023-10-06T04:31:38.014Z,5.57
2023-10-06T04:34:05.314Z,5.43
2023-10-06T04:36:33.067Z,5.27
2023-10-06T04:38:59.809Z,5.97
2023-10-06T04:41:26.950Z,6.00
2023-10-06T04:43:53.982Z,6.50
2023-10-06T04:46:20.789Z,5.70
2023-10-06T04:48:49.537Z,5.80
2023-10-06T04:51:16.445Z,5.57
2023-10-06T04:53:46.521Z,5.53
2023-10-06T04:56:13.461Z,5.33
2023-10-06T04:58:41.047Z,5.83
2023-10-06T05:01:08.897Z,5.30
2023-10-06T05:03:45.868Z,5.23
2023-10-06T05:06:15.074Z,5.13
2023-10-06T05:08:42.257Z,6.00
2023-10-06T05:11:11.818Z,5.17
2023-10-06T05:13:39.381Z,5.70
2023-10-06T05:16:06.130Z,6.07
2023-10-06T05:18:34.318Z,6.07
2023-10-06T05:21:02.270Z,6.40
2023-10-06T05:23:29.676Z,5.90
2023-10-06T05:26:04.403Z,6.00
2023-10-06T05:28:32.743Z,5.70
2023-10-06T05:30:59.670Z,5.57
2023-10-06T05:33:26.502Z,6.00
2023-10-06T05:35:53.342Z,6.97
2023-10-06T05:38:20.483Z,8.87
2023-10-06T05:40:47.959Z,8.43
2023-10-06T05:43:17.237Z,6.83
2023-10-06T05:45:44.878Z,5.97
2023-10-06T05:48:17.139Z,6.30
2023-10-06T05:50:44.669Z,5.93
2023-10-06T05:53:18.349Z,6.57
2023-10-06T05:55:46.892Z,5.63
2023-10-06T05:58:16.618Z,5.33
2023-10-06T06:00:52.664Z,5.10
2023-10-06T06:03:21.837Z,5.50
2023-10-06T06:05:49.345Z,5.03
2023-10-06T06:08:16.120Z,5.63
2023-10-06T06:10:42.994Z,5.47
2023-10-06T06:13:09.741Z,6.17
2023-10-06T06:15:37.408Z,5.63
2023-10-06T06:18:05.519Z,5.57
2023-10-06T06:20:32.271Z,5.97
2023-10-06T06:23:03.794Z,5.80
2023-10-06T06:25:30.821Z,5.23
2023-10-06T06:28:00.250Z,5.17
2023-10-06T06:30:27.538Z,5.90
2023-10-06T06:32:55.012Z,6.23
2023-10-06T06:35:22.825Z,6.30
2023-10-06T06:37:52.122Z,5.60
2023-10-06T06:40:20.890Z,5.50
2023-10-06T06:42:48.726Z,5.77
2023-10-06T06:45:15.879Z,5.60
2023-10-06T06:47:45.597Z,5.87
2023-10-06T06:50:14.596Z,5.70
2023-10-06T06:52:41.636Z,6.10
2023-10-06T06:55:14.837Z,5.67
2023-10-06T06:57:42.427Z,6.27
2023-10-06T07:00:16.670Z,6.50
2023-10-06T07:02:47.497Z,5.77
2023-10-06T07:05:14.987Z,6.57
2023-10-06T07:07:44.209Z,5.73
2023-10-06T07:10:14.322Z,6.20
2023-10-06T07:12:42.136Z,6.27
2023-10-06T07:15:21.138Z,5.50
2023-10-06T07:17:49.413Z,6.10
2023-10-06T07:20:18.004Z,6.40
2023-10-06T07:22:46.426Z,5.63
2023-10-06T07:25:16.461Z,6.23
2023-10-06T07:27:44.801Z,6.40
2023-10-06T07:30:12.437Z,5.60
2023-10-06T07:32:44.892Z,6.03
2023-10-06T07:35:13.139Z,5.63
2023-10-06T07:37:43.954Z,6.23
2023-10-06T07:40:14.254Z,6.37
2023-10-06T07:42:42.417Z,6.50
2023-10-06T07:45:09.779Z,5.93
2023-10-06T07:47:37.638Z,6.63
2023-10-06T07:50:06.181Z,7.30
2023-10-06T07:52:33.500Z,6.80
2023-10-06T07:55:07.453Z,6.90
2023-10-06T07:57:35.310Z,7.53
2023-10-06T08:00:05.961Z,6.90
2023-10-06T08:02:40.718Z,7.10
2023-10-06T08:05:08.692Z,7.80
2023-10-06T08:07:35.465Z,7.83
2023-10-06T08:10:04.466Z,8.03
2023-10-06T08:12:34.867Z,7.97
2023-10-06T08:15:02.493Z,7.33
2023-10-06T08:17:29.175Z,8.00
2023-10-06T08:19:56.679Z,7.03
2023-10-06T08:22:26.305Z,7.87
2023-10-06T08:24:56.012Z,7.67
2023-10-06T08:27:24.941Z,7.83
2023-10-06T08:29:55.618Z,7.00
2023-10-06T08:32:22.987Z,6.67
2023-10-06T08:34:49.833Z,6.83
2023-10-06T08:37:16.786Z,7.50
2023-10-06T08:39:45.215Z,6.43
2023-10-06T08:42:12.928Z,7.43
2023-10-06T08:44:43.027Z,7.50
2023-10-06T08:47:26.284Z,7.43
2023-10-06T08:49:56.354Z,7.53
2023-10-06T08:52:23.864Z,7.60
2023-10-06T08:54:50.642Z,6.93
2023-10-06T08:57:17.427Z,7.20
2023-10-06T08:59:46.032Z,6.33
2023-10-06T09:02:13.273Z,6.43
2023-10-06T09:04:40.171Z,5.97
2023-10-06T09:07:11.308Z,6.10
2023-10-06T09:09:38.004Z,6.17
2023-10-06T09:12:05.031Z,5.90
2023-10-06T09:14:32.249Z,5.80
2023-10-06T09:17:02.735Z,5.97
2023-10-06T09:19:47.861Z,6.10
2023-10-06T09:22:15.151Z,5.23
2023-10-06T09:24:41.901Z,5.40
2023-10-06T09:27:21.206Z,4.97
2023-10-06T09:29:48.638Z,4.73
2023-10-06T09:32:20.812Z,4.43
2023-10-06T09:34:47.693Z,4.70
2023-10-06T09:37:19.660Z,5.03
2023-10-06T09:39:55.819Z,5.90
2023-10-06T09:42:25.388Z,4.50
2023-10-06T09:44:57.837Z,4.33
2023-10-06T09:47:24.873Z,4.47
2023-10-06T09:49:52.123Z,4.60
2023-10-06T09:52:20.281Z,4.07
2023-10-06T09:54:47.961Z,4.33
2023-10-06T09:57:15.001Z,4.63
2023-10-06T09:59:41.741Z,3.80
2023-10-06T10:02:12.802Z,3.47
2023-10-06T10:04:39.804Z,3.10
2023-10-06T10:07:06.751Z,3.13
2023-10-06T10:09:36.231Z,3.30
2023-10-06T10:12:18.419Z,3.80
2023-10-06T10:14:55.070Z,3.63
2023-10-06T10:17:45.054Z,3.97
2023-10-06T10:20:14.040Z,3.93
2023-10-06T10:22:43.812Z,4.07
2023-10-06T10:25:24.799Z,11.37
2023-10-06T10:28:11.367Z,28.83
2023-10-06T10:30:57.662Z,14.57
2023-10-06T10:33:25.637Z,6.77
2023-10-06T10:36:12.847Z,5.20
2023-10-06T10:38:39.789Z,4.93
2023-10-06T10:41:09.881Z,4.73
2023-10-06T10:43:38.317Z,4.80
2023-10-06T10:46:05.508Z,3.87
2023-10-06T10:48:33.111Z,4.13
2023-10-06T10:51:01.965Z,4.23
2023-10-06T10:53:30.621Z,3.97
2023-10-06T10:55:57.835Z,3.43
2023-10-06T10:58:42.984Z,3.70
2023-10-06T11:01:28.525Z,3.93
2023-10-06T11:04:11.137Z,3.57
2023-10-06T11:06:38.875Z,3.60
2023-10-06T11:09:13.342Z,3.87
2023-10-06T11:11:40.385Z,3.37
2023-10-06T11:14:07.293Z,3.30
2023-10-06T11:16:36.461Z,3.83
2023-10-06T11:19:04.719Z,3.60
2023-10-06T11:21:34.572Z,3.90
2023-10-06T11:24:01.260Z,3.80
2023-10-06T11:26:28.700Z,3.87
2023-10-06T11:28:56.541Z,3.83
2023-10-06T11:31:26.204Z,3.70
2023-10-06T11:33:55.888Z,4.07
2023-10-06T11:36:22.956Z,4.07
2023-10-06T11:38:49.859Z,4.30
2023-10-06T11:41:23.645Z,3.90
2023-10-06T11:43:54.091Z,4.17
2023-10-06T11:46:20.827Z,3.73
2023-10-06T11:48:47.589Z,3.70
2023-10-06T11:51:14.426Z,4.13
2023-10-06T11:53:41.740Z,3.80
2023-10-06T11:56:13.242Z,3.60
2023-10-06T11:58:43.856Z,3.33
2023-10-06T12:01:37.790Z,3.53
2023-10-06T12:04:09.625Z,3.73
2023-10-06T12:06:39.875Z,3.83
2023-10-06T12:09:09.491Z,4.30
2023-10-06T12:11:39.176Z,4.03
2023-10-06T12:14:06.164Z,4.03
2023-10-06T12:16:32.998Z,4.23
2023-10-06T12:19:00.866Z,4.00
2023-10-06T12:21:27.686Z,4.63
2023-10-06T12:23:55.259Z,4.20
2023-10-06T12:26:22.023Z,4.27
2023-10-06T12:28:49.299Z,3.90
2023-10-06T12:31:16.108Z,3.87
2023-10-06T12:33:43.167Z,3.90
2023-10-06T12:36:10.323Z,4.13
2023-10-06T12:38:37.332Z,4.47
2023-10-06T12:41:08.659Z,3.97
2023-10-06T12:43:37.443Z,4.00
2023-10-06T12:46:05.232Z,4.57
2023-10-06T12:48:32.273Z,4.43
2023-10-06T12:50:59.301Z,4.43
2023-10-06T12:53:26.348Z,3.97
2023-10-06T12:55:57.732Z,4.20
2023-10-06T12:58:24.690Z,4.93
2023-10-06T13:00:51.467Z,4.40
2023-10-06T13:03:18.662Z,4.83
2023-10-06T13:05:46.855Z,4.17
2023-10-06T13:08:25.992Z,5.30
2023-10-06T13:10:54.811Z,5.10
2023-10-06T13:13:21.669Z,4.30
2023-10-06T13:15:48.495Z,4.57
2023-10-06T13:18:18.343Z,3.97
2023-10-06T13:20:45.546Z,4.40
2023-10-06T13:23:12.334Z,4.77
2023-10-06T13:25:39.251Z,5.27
2023-10-06T13:28:15.832Z,5.43
2023-10-06T13:30:46.229Z,4.60
2023-10-06T13:33:15.464Z,5.90
2023-10-06T13:35:43.219Z,5.23
2023-10-06T13:38:11.065Z,5.37
2023-10-06T13:40:38.471Z,5.30
2023-10-06T13:43:08.503Z,5.17
2023-10-06T13:45:35.590Z,5.50
2023-10-06T13:48:05.142Z,6.00
2023-10-06T13:50:32.527Z,5.77
2023-10-06T13:52:59.477Z,5.13
2023-10-06T13:55:26.344Z,6.07
2023-10-06T13:57:54.123Z,5.80
2023-10-06T14:00:30.665Z,5.70
2023-10-06T14:02:59.973Z,6.07
2023-10-06T14:05:31.807Z,5.87
2023-10-06T14:08:00.361Z,6.57
2023-10-06T14:10:27.693Z,5.37
2023-10-06T14:13:01.968Z,5.10
2023-10-06T14:15:41.758Z,5.20
2023-10-06T14:18:09.323Z,5.40
2023-10-06T14:20:36.999Z,6.20
2023-10-06T14:23:03.962Z,5.03
2023-10-06T14:25:34.124Z,5.43
2023-10-06T14:28:01.761Z,5.00
2023-10-06T14:30:29.422Z,5.30
2023-10-06T14:33:08.975Z,4.47
2023-10-06T14:36:00.739Z,5.70
2023-10-06T14:38:31.546Z,5.30
2023-10-06T14:41:20.414Z,5.13
2023-10-06T14:44:06.390Z,5.90
2023-10-06T14:46:33.641Z,4.83
2023-10-06T14:49:04.287Z,5.57
2023-10-06T14:51:31.385Z,6.60
2023-10-06T14:54:01.411Z,6.70
2023-10-06T14:56:28.470Z,37.63
2023-10-06T14:58:58.532Z,214.10
2023-10-06T15:01:26.015Z,78.40
2023-10-06T15:03:53.152Z,21.20
2023-10-06T15:06:20.278Z,9.50
2023-10-06T15:08:49.254Z,5.57
2023-10-06T15:11:18.026Z,5.70
2023-10-06T15:13:48.013Z,5.77
2023-10-06T15:16:17.110Z,5.60
2023-10-06T15:18:44.282Z,5.10
2023-10-06T15:21:14.551Z,5.13
2023-10-06T15:23:54.740Z,5.07
2023-10-06T15:26:24.716Z,4.33
2023-10-06T15:28:51.496Z,5.83
2023-10-06T15:31:18.347Z,5.40
2023-10-06T15:33:45.156Z,4.43
2023-10-06T15:36:16.721Z,4.80
2023-10-06T15:38:44.372Z,5.23
2023-10-06T15:41:12.655Z,4.40
2023-10-06T15:43:40.251Z,4.83
2023-10-06T15:46:09.827Z,5.67
2023-10-06T15:48:39.245Z,4.70
2023-10-06T15:51:13.056Z,5.37
2023-10-06T15:53:40.655Z,5.00
2023-10-06T15:56:09.913Z,4.93
2023-10-06T15:58:38.068Z,4.97
2023-10-06T16:01:06.653Z,5.00
2023-10-06T16:03:33.492Z,5.20
2023-10-06T16:06:00.306Z,4.77
2023-10-06T16:08:27.059Z,4.93
2023-10-06T16:10:59.019Z,5.73
2023-10-06T16:13:25.779Z,4.57
2023-10-06T16:16:08.832Z,4.87
2023-10-06T16:18:38.458Z,4.60
2023-10-06T16:21:07.452Z,4.67
2023-10-06T16:23:34.352Z,4.70
2023-10-06T16:26:01.286Z,4.43
2023-10-06T16:28:28.950Z,5.30
2023-10-06T16:30:57.483Z,5.03
2023-10-06T16:33:24.568Z,5.03
2023-10-06T16:35:51.430Z,4.93
2023-10-06T16:38:18.440Z,4.83
2023-10-06T16:40:45.240Z,5.00
2023-10-06T16:43:12.863Z,5.73
2023-10-06T16:45:39.692Z,5.40
2023-10-06T16:48:07.007Z,5.20
2023-10-06T16:50:43.010Z,4.90
2023-10-06T16:53:11.700Z,5.53
2023-10-06T16:55:39.092Z,5.53
2023-10-06T16:58:06.371Z,5.30
2023-10-06T17:00:37.862Z,5.40
2023-10-06T17:03:04.895Z,251.27
2023-10-06T17:05:31.971Z,145.03
2023-10-06T17:07:59.463Z,262.67
2023-10-06T17:10:28.706Z,139.17
2023-10-06T17:12:55.417Z,44.50
2023-10-06T17:15:23.107Z,19.33
2023-10-06T17:17:50.819Z,15.20
2023-10-06T17:20:18.534Z,11.80
2023-10-06T17:22:46.022Z,10.93
2023-10-06T17:25:15.884Z,9.90
2023-10-06T17:27:46.759Z,10.27
2023-10-06T17:30:16.663Z,8.03
2023-10-06T17:32:44.864Z,8.53
2023-10-06T17:35:12.096Z,8.53
2023-10-06T17:37:38.791Z,9.17
2023-10-06T17:40:05.869Z,8.73
2023-10-06T17:42:34.536Z,9.00
2023-10-06T17:45:04.745Z,8.47
2023-10-06T17:47:31.686Z,8.77
2023-10-06T17:49:59.678Z,8.20
2023-10-06T17:52:26.619Z,8.30
2023-10-06T17:54:56.407Z,8.67
2023-10-06T17:57:23.895Z,8.23
2023-10-06T17:59:50.868Z,8.77
2023-10-06T18:02:18.306Z,8.30
2023-10-06T18:04:46.664Z,8.77
2023-10-06T18:07:14.901Z,8.67
2023-10-06T18:09:44.588Z,8.20
2023-10-06T18:14:50.711Z,7.47
2023-10-06T18:17:17.476Z,8.07
2023-10-06T18:19:44.351Z,8.30
2023-10-06T18:22:12.555Z,7.37
2023-10-06T18:24:39.418Z,7.57
2023-10-06T18:27:06.093Z,7.60
2023-10-06T18:29:32.849Z,7.83
2023-10-06T18:31:59.914Z,7.67
2023-10-06T18:34:26.864Z,7.93
2023-10-06T18:36:53.654Z,7.73
2023-10-06T18:39:23.168Z,7.87
2023-10-06T18:41:49.922Z,7.87
2023-10-06T18:44:18.021Z,7.70
2023-10-06T18:46:45.494Z,21.17
2023-10-06T18:49:16.174Z,14.60
2023-10-06T18:51:44.513Z,14.53
2023-10-06T18:54:11.465Z,13.43
2023-10-06T18:56:38.329Z,12.70
2023-10-06T18:59:06.213Z,11.40
2023-10-06T19:01:36.650Z,9.30
2023-10-06T19:04:10.491Z,8.63
2023-10-06T19:06:40.097Z,9.53
2023-10-06T19:09:11.079Z,8.47
2023-10-06T19:11:38.192Z,8.50
2023-10-06T19:14:05.898Z,6.83
2023-10-06T19:16:33.079Z,8.33
2023-10-06T19:19:00.846Z,8.00
2023-10-06T19:21:27.765Z,7.47
2023-10-06T19:23:55.587Z,6.27
2023-10-06T19:26:23.596Z,6.90
2023-10-06T19:28:50.934Z,6.63
2023-10-06T19:31:17.983Z,7.10
2023-10-06T19:33:53.724Z,7.10
2023-10-06T19:36:21.366Z,7.33
2023-10-06T19:38:48.624Z,7.93
2023-10-06T19:41:16.281Z,7.33
2023-10-06T19:43:43.477Z,7.40
2023-10-06T19:46:11.859Z,7.57
2023-10-06T19:48:39.511Z,7.57
2023-10-06T19:51:10.159Z,6.67
2023-10-06T19:53:37.342Z,7.33
2023-10-06T19:56:04.738Z,6.80
2023-10-06T19:58:32.151Z,8.50
2023-10-06T20:00:59.633Z,7.60
2023-10-06T20:03:26.821Z,7.83
2023-10-06T20:05:57.333Z,7.90
2023-10-06T20:08:24.603Z,7.83
2023-10-06T20:10:52.200Z,8.37
2023-10-06T20:13:19.701Z,8.70
2023-10-06T20:15:46.600Z,8.40
2023-10-06T20:18:14.478Z,7.70
2023-10-06T20:20:42.770Z,7.53
2023-10-06T20:23:09.508Z,7.67
2023-10-06T20:25:36.284Z,8.87
2023-10-06T20:28:04.046Z,7.93
2023-10-06T20:30:31.677Z,7.60
2023-10-06T20:32:58.490Z,7.77
2023-10-06T20:35:28.686Z,8.03
2023-10-06T20:37:59.180Z,7.90
2023-10-06T20:40:26.088Z,7.33
2023-10-06T20:42:53.436Z,7.53
2023-10-06T20:45:20.113Z,7.87
2023-10-06T20:47:47.041Z,7.17
2023-10-06T20:50:14.303Z,8.13
2023-10-06T20:52:43.718Z,8.90
2023-10-06T20:55:13.912Z,8.17
2023-10-06T20:57:44.324Z,25.77
2023-10-06T21:00:11.364Z,9.57
2023-10-06T21:02:39.816Z,11.93
2023-10-06T21:05:07.437Z,43.60
2023-10-06T21:07:37.317Z,14.40
2023-10-06T21:10:07.575Z,9.10
2023-10-06T21:12:38.196Z,8.00
2023-10-06T21:15:05.715Z,8.53
2023-10-06T21:17:32.596Z,8.83
2023-10-06T21:19:59.807Z,8.70
2023-10-06T21:22:30.229Z,8.33
2023-10-06T21:24:57.138Z,8.63
2023-10-06T21:27:24.185Z,9.03
2023-10-06T21:29:51.048Z,8.50
2023-10-06T21:32:18.317Z,9.10
2023-10-06T21:34:45.311Z,9.23
2023-10-06T21:37:13.390Z,8.33
2023-10-06T21:39:40.101Z,8.60
2023-10-06T21:42:06.815Z,8.60
2023-10-06T21:44:33.713Z,8.77
2023-10-06T21:47:01.058Z,9.30
2023-10-06T21:49:28.037Z,9.13
2023-10-06T21:51:55.360Z,8.63
2023-10-06T21:54:22.069Z,8.47
2023-10-06T21:56:48.845Z,8.37
2023-10-06T21:59:15.586Z,8.90
2023-10-06T22:01:42.396Z,9.30
2023-10-06T22:04:14.241Z,9.53
2023-10-06T22:06:41.338Z,9.47
2023-10-06T22:09:16.244Z,9.77
2023-10-06T22:11:45.282Z,9.03
2023-10-06T22:14:13.377Z,10.50
2023-10-06T22:16:41.029Z,9.60
2023-10-06T22:19:11.402Z,10.50
2023-10-06T22:21:38.241Z,9.70
2023-10-06T22:24:06.566Z,10.67
2023-10-06T22:26:33.339Z,9.87
2023-10-06T22:29:00.206Z,10.27
2023-10-06T22:31:27.573Z,9.57
2023-10-06T22:33:57.484Z,10.57
2023-10-06T22:36:24.507Z,9.20
2023-10-06T22:38:51.659Z,9.73
2023-10-06T22:41:18.700Z,9.60
2023-10-06T22:43:45.705Z,9.80
2023-10-06T22:46:12.545Z,9.67
2023-10-06T22:48:40.107Z,9.70
2023-10-06T22:51:08.045Z,8.90
2023-10-06T22:53:39.505Z,9.50
2023-10-06T22:56:06.735Z,8.73
2023-10-06T22:58:37.724Z,9.00
2023-10-06T23:01:05.221Z,8.60
2023-10-06T23:03:33.493Z,9.30
2023-10-06T23:06:00.650Z,9.50
2023-10-06T23:08:28.815Z,10.00
2023-10-06T23:10:56.117Z,9.33
2023-10-06T23:13:23.054Z,9.00
2023-10-06T23:15:50.606Z,9.73
2023-10-06T23:18:18.454Z,8.83
2023-10-06T23:20:47.149Z,9.10
2023-10-06T23:23:13.950Z,8.47
2023-10-06T23:25:56.147Z,8.63
2023-10-06T23:28:24.060Z,8.73
2023-10-06T23:30:50.858Z,8.80
2023-10-06T23:33:17.607Z,8.87
2023-10-06T23:35:44.358Z,8.27
2023-10-06T23:38:12.941Z,8.67
2023-10-06T23:40:43.171Z,7.87
2023-10-06T23:43:10.018Z,8.73
2023-10-06T23:45:42.141Z,8.73
2023-10-06T23:48:12.405Z,8.67
2023-10-06T23:50:42.415Z,8.93
2023-10-06T23:53:11.875Z,9.20
2023-10-06T23:55:43.822Z,9.63
2023-10-06T23:58:17.337Z,9.37
